UAL1714 KSAN-KDEN
Flight info
| Callsign | UAL1714 |
|---|---|
| Flight time | 1h 58m |
| Altitude | 39000 |
| Route | ZZOOO4 MTBAL EED PATOK BUMMP SSKII3 |
| Aircraft | A20N/M-SDE2E3FGHIRWXY/LB1 |
Departure
| Time | 2026-05-06 03:48 |
|---|---|
| Airport | San Diego International Airport (KSAN) |
Arrival
| Time | 2026-05-06 05:46 |
|---|---|
| Airport | Denver International Airport (KDEN) |
| Time | Latitude | Longitude | Altitude | Speed | Heading |
|---|---|---|---|---|---|
| 2026-05-06 02:52 | 32.73386 | -117.20465 | 28 ft | 0 kts | 89° |
| 2026-05-06 03:32 | 32.73386 | -117.20467 | 28 ft | 2 kts | 89° |
| 2026-05-06 03:32 | 32.73386 | -117.20487 | 28 ft | 2 kts | 89° |
| 2026-05-06 03:33 | 32.73386 | -117.20507 | 28 ft | 2 kts | 89° |
| 2026-05-06 03:33 | 32.73381 | -117.20527 | 28 ft | 3 kts | 51° |
| 2026-05-06 03:33 | 32.73367 | -117.20539 | 28 ft | 3 kts | 13° |
| 2026-05-06 03:33 | 32.73360 | -117.20541 | 28 ft | 1 kts | 355° |
| 2026-05-06 03:34 | 32.73366 | -117.20543 | 28 ft | 0 kts | 342° |
| 2026-05-06 03:37 | 32.73371 | -117.20545 | 28 ft | 2 kts | 342° |
| 2026-05-06 03:37 | 32.73427 | -117.20563 | 26 ft | 22 kts | 351° |
| 2026-05-06 03:37 | 32.73519 | -117.20530 | 24 ft | 10 kts | 43° |
| 2026-05-06 03:37 | 32.73561 | -117.20471 | 23 ft | 8 kts | 59° |
| 2026-05-06 03:38 | 32.73569 | -117.20449 | 23 ft | 3 kts | 69° |
| 2026-05-06 03:38 | 32.73578 | -117.20415 | 25 ft | 5 kts | 73° |
| 2026-05-06 03:38 | 32.73584 | -117.20387 | 25 ft | 3 kts | 80° |
| 2026-05-06 03:38 | 32.73586 | -117.20369 | 25 ft | 3 kts | 83° |
| 2026-05-06 03:39 | 32.73586 | -117.20343 | 26 ft | 4 kts | 95° |
| 2026-05-06 03:39 | 32.73576 | -117.20294 | 28 ft | 6 kts | 106° |
| 2026-05-06 03:39 | 32.73555 | -117.20210 | 29 ft | 15 kts | 107° |
| 2026-05-06 03:39 | 32.73521 | -117.20075 | 29 ft | 19 kts | 106° |
| 2026-05-06 03:40 | 32.73483 | -117.19924 | 30 ft | 19 kts | 107° |
| 2026-05-06 03:40 | 32.73444 | -117.19756 | 30 ft | 22 kts | 104° |
| 2026-05-06 03:40 | 32.73401 | -117.19578 | 30 ft | 22 kts | 108° |
| 2026-05-06 03:40 | 32.73356 | -117.19399 | 29 ft | 23 kts | 106° |
| 2026-05-06 03:41 | 32.73310 | -117.19206 | 27 ft | 25 kts | 106° |
| 2026-05-06 03:41 | 32.73262 | -117.19013 | 29 ft | 24 kts | 106° |
| 2026-05-06 03:41 | 32.73218 | -117.18821 | 30 ft | 23 kts | 104° |
| 2026-05-06 03:41 | 32.73172 | -117.18636 | 30 ft | 24 kts | 106° |
| 2026-05-06 03:42 | 32.73125 | -117.18440 | 27 ft | 25 kts | 106° |
| 2026-05-06 03:42 | 32.73085 | -117.18273 | 27 ft | 19 kts | 105° |
| 2026-05-06 03:42 | 32.73048 | -117.18124 | 24 ft | 14 kts | 108° |
| 2026-05-06 03:42 | 32.73026 | -117.18037 | 25 ft | 11 kts | 106° |
| 2026-05-06 03:43 | 32.73005 | -117.17952 | 23 ft | 10 kts | 107° |
| 2026-05-06 03:43 | 32.72983 | -117.17864 | 24 ft | 12 kts | 107° |
| 2026-05-06 03:43 | 32.72973 | -117.17826 | 22 ft | 3 kts | 107° |
| 2026-05-06 03:43 | 32.72965 | -117.17793 | 21 ft | 5 kts | 107° |
| 2026-05-06 03:44 | 32.72954 | -117.17752 | 21 ft | 7 kts | 105° |
| 2026-05-06 03:44 | 32.72953 | -117.17677 | 23 ft | 9 kts | 77° |
| 2026-05-06 03:44 | 32.72966 | -117.17633 | 24 ft | 0 kts | 65° |
| 2026-05-06 03:44 | 32.72967 | -117.17632 | 24 ft | 2 kts | 65° |
| 2026-05-06 03:45 | 32.72995 | -117.17584 | 27 ft | 0 kts | 44° |
| 2026-05-06 03:45 | 32.73007 | -117.17572 | 27 ft | 0 kts | 36° |
| 2026-05-06 03:45 | 32.72995 | -117.17583 | 27 ft | 2 kts | 36° |
| 2026-05-06 03:45 | 32.72980 | -117.17595 | 26 ft | 3 kts | 26° |
| 2026-05-06 03:46 | 32.72989 | -117.17593 | 27 ft | 4 kts | 14° |
| 2026-05-06 03:46 | 32.73003 | -117.17590 | 26 ft | 4 kts | 7° |
| 2026-05-06 03:46 | 32.73017 | -117.17590 | 27 ft | 3 kts | 351° |
| 2026-05-06 03:46 | 32.73007 | -117.17587 | 26 ft | 1 kts | 326° |
| 2026-05-06 03:47 | 32.73029 | -117.17611 | 25 ft | 8 kts | 310° |
| 2026-05-06 03:47 | 32.73055 | -117.17702 | 24 ft | 15 kts | 274° |
| 2026-05-06 03:47 | 32.73083 | -117.17843 | 25 ft | 20 kts | 289° |
| 2026-05-06 03:47 | 32.73130 | -117.18024 | 22 ft | 30 kts | 286° |
| 2026-05-06 03:48 | 32.73260 | -117.18541 | 28 ft | 105 kts | 286° |
| 2026-05-06 03:48 | 32.73541 | -117.19666 | 188 ft | 165 kts | 288° |
| 2026-05-06 03:48 | 32.73896 | -117.20986 | 1025 ft | 171 kts | 289° |
| 2026-05-06 03:48 | 32.74236 | -117.22341 | 2001 ft | 173 kts | 285° |
| 2026-05-06 03:49 | 32.74575 | -117.23822 | 2641 ft | 198 kts | 285° |
| 2026-05-06 03:49 | 32.74953 | -117.25458 | 3395 ft | 211 kts | 286° |
| 2026-05-06 03:49 | 32.75365 | -117.27208 | 4071 ft | 227 kts | 286° |
| 2026-05-06 03:49 | 32.75800 | -117.29031 | 4978 ft | 232 kts | 287° |
| 2026-05-06 03:50 | 32.76244 | -117.30896 | 5826 ft | 237 kts | 286° |
| 2026-05-06 03:50 | 32.76478 | -117.32859 | 6664 ft | 245 kts | 271° |
| 2026-05-06 03:50 | 32.76076 | -117.34845 | 7413 ft | 255 kts | 245° |
| 2026-05-06 03:50 | 32.74923 | -117.36478 | 8233 ft | 265 kts | 217° |
| 2026-05-06 03:51 | 32.73248 | -117.37314 | 9186 ft | 270 kts | 189° |
| 2026-05-06 03:51 | 32.71380 | -117.37139 | 10120 ft | 274 kts | 160° |
| 2026-05-06 03:51 | 32.69785 | -117.35933 | 10955 ft | 276 kts | 132° |
| 2026-05-06 03:51 | 32.68592 | -117.34140 | 11825 ft | 278 kts | 123° |
| 2026-05-06 03:52 | 32.67503 | -117.32225 | 12718 ft | 282 kts | 122° |
| 2026-05-06 03:52 | 32.66405 | -117.30274 | 13626 ft | 286 kts | 122° |
| 2026-05-06 03:52 | 32.65285 | -117.28308 | 14458 ft | 290 kts | 123° |
| 2026-05-06 03:52 | 32.64140 | -117.26317 | 15259 ft | 294 kts | 122° |
| 2026-05-06 03:53 | 32.63223 | -117.24147 | 16048 ft | 296 kts | 105° |
| 2026-05-06 03:53 | 32.62812 | -117.21700 | 16521 ft | 313 kts | 96° |
| 2026-05-06 03:53 | 32.62569 | -117.19049 | 16824 ft | 334 kts | 94° |
| 2026-05-06 03:53 | 32.62340 | -117.16218 | 17158 ft | 354 kts | 94° |
| 2026-05-06 03:54 | 32.62102 | -117.13299 | 17711 ft | 365 kts | 94° |
| 2026-05-06 03:54 | 32.62153 | -117.10284 | 18428 ft | 370 kts | 79° |
| 2026-05-06 03:54 | 32.62845 | -117.07327 | 19068 ft | 373 kts | 69° |
| 2026-05-06 03:54 | 32.63772 | -117.04428 | 19685 ft | 379 kts | 67° |
| 2026-05-06 03:55 | 32.64749 | -117.01502 | 20307 ft | 384 kts | 67° |
| 2026-05-06 03:55 | 32.65642 | -116.98817 | 20882 ft | 389 kts | 68° |
| 2026-05-06 03:56 | 32.66384 | -116.95986 | 21457 ft | 396 kts | 77° |
| 2026-05-06 03:56 | 32.66716 | -116.92728 | 22075 ft | 402 kts | 86° |
| 2026-05-06 03:56 | 32.66827 | -116.89395 | 22677 ft | 407 kts | 88° |
| 2026-05-06 03:56 | 32.66912 | -116.86016 | 23249 ft | 412 kts | 86° |
| 2026-05-06 03:57 | 32.67280 | -116.82629 | 23784 ft | 416 kts | 76° |
| 2026-05-06 03:57 | 32.68205 | -116.79369 | 24243 ft | 418 kts | 63° |
| 2026-05-06 03:57 | 32.69708 | -116.76410 | 24695 ft | 419 kts | 50° |
| 2026-05-06 03:57 | 32.71683 | -116.73942 | 25164 ft | 419 kts | 37° |
| 2026-05-06 03:58 | 32.74081 | -116.72009 | 25615 ft | 417 kts | 24° |
| 2026-05-06 03:58 | 32.76723 | -116.70560 | 26068 ft | 419 kts | 19° |
| 2026-05-06 03:58 | 32.79424 | -116.69244 | 26519 ft | 422 kts | 18° |
| 2026-05-06 03:58 | 32.82155 | -116.67934 | 26776 ft | 424 kts | 22° |
| 2026-05-06 03:59 | 32.84875 | -116.66621 | 27401 ft | 422 kts | 22° |
| 2026-05-06 03:59 | 32.87607 | -116.65291 | 27761 ft | 426 kts | 22° |
| 2026-05-06 03:59 | 32.90356 | -116.63948 | 28074 ft | 430 kts | 22° |
| 2026-05-06 03:59 | 32.93128 | -116.62588 | 28690 ft | 434 kts | 18° |
| 2026-05-06 04:00 | 32.95968 | -116.61195 | 28804 ft | 444 kts | 18° |
| 2026-05-06 04:00 | 32.98795 | -116.59808 | 29220 ft | 446 kts | 18° |
| 2026-05-06 04:00 | 33.01666 | -116.58376 | 29660 ft | 449 kts | 19° |
| 2026-05-06 04:00 | 33.04539 | -116.56888 | 30065 ft | 451 kts | 19° |
| 2026-05-06 04:01 | 33.07421 | -116.55382 | 30388 ft | 454 kts | 20° |
| 2026-05-06 04:01 | 33.10319 | -116.53864 | 30692 ft | 456 kts | 20° |
| 2026-05-06 04:01 | 33.13228 | -116.52341 | 30983 ft | 458 kts | 20° |
| 2026-05-06 04:01 | 33.16153 | -116.50809 | 31282 ft | 460 kts | 20° |
| 2026-05-06 04:02 | 33.19082 | -116.49274 | 31674 ft | 459 kts | 20° |
| 2026-05-06 04:02 | 33.21991 | -116.47747 | 32085 ft | 458 kts | 20° |
| 2026-05-06 04:02 | 33.24913 | -116.46215 | 32482 ft | 457 kts | 20° |
| 2026-05-06 04:02 | 33.27788 | -116.44706 | 32851 ft | 457 kts | 20° |
| 2026-05-06 04:03 | 33.30695 | -116.43179 | 33201 ft | 457 kts | 20° |
| 2026-05-06 04:03 | 33.33608 | -116.41648 | 33555 ft | 457 kts | 20° |
| 2026-05-06 04:03 | 33.36497 | -116.40045 | 33862 ft | 459 kts | 25° |
| 2026-05-06 04:03 | 33.39201 | -116.37993 | 34139 ft | 463 kts | 35° |
| 2026-05-06 04:04 | 33.41575 | -116.35365 | 34388 ft | 467 kts | 46° |
| 2026-05-06 04:04 | 33.43590 | -116.32316 | 34356 ft | 469 kts | 52° |
| 2026-05-06 04:04 | 33.45506 | -116.29138 | 34876 ft | 469 kts | 53° |
| 2026-05-06 04:04 | 33.47393 | -116.25960 | 35236 ft | 467 kts | 53° |
| 2026-05-06 04:05 | 33.49278 | -116.22790 | 35404 ft | 469 kts | 52° |
| 2026-05-06 04:05 | 33.51176 | -116.19603 | 35572 ft | 471 kts | 53° |
| 2026-05-06 04:05 | 33.53064 | -116.16438 | 35725 ft | 474 kts | 53° |
| 2026-05-06 04:05 | 33.54982 | -116.13223 | 35938 ft | 475 kts | 53° |
| 2026-05-06 04:06 | 33.56904 | -116.10000 | 36166 ft | 475 kts | 53° |
| 2026-05-06 04:06 | 33.58826 | -116.06776 | 36380 ft | 476 kts | 53° |
| 2026-05-06 04:06 | 33.60846 | -116.03629 | 36546 ft | 477 kts | 48° |
| 2026-05-06 04:06 | 33.63005 | -116.00610 | 36762 ft | 477 kts | 46° |
| 2026-05-06 04:07 | 33.65220 | -115.97644 | 36987 ft | 477 kts | 46° |
| 2026-05-06 04:07 | 33.67455 | -115.94709 | 37185 ft | 477 kts | 45° |
| 2026-05-06 04:07 | 33.69711 | -115.91766 | 37355 ft | 479 kts | 45° |
| 2026-05-06 04:07 | 33.71967 | -115.88817 | 37570 ft | 479 kts | 45° |
| 2026-05-06 04:08 | 33.74213 | -115.85867 | 37783 ft | 479 kts | 45° |
| 2026-05-06 04:08 | 33.76429 | -115.82943 | 37972 ft | 479 kts | 46° |
| 2026-05-06 04:08 | 33.78673 | -115.79972 | 38116 ft | 481 kts | 46° |
| 2026-05-06 04:08 | 33.80920 | -115.76987 | 38294 ft | 481 kts | 46° |
| 2026-05-06 04:09 | 33.83166 | -115.74000 | 38495 ft | 481 kts | 46° |
| 2026-05-06 04:09 | 33.85408 | -115.71013 | 38656 ft | 482 kts | 46° |
| 2026-05-06 04:09 | 33.87656 | -115.68017 | 38783 ft | 482 kts | 46° |
| 2026-05-06 04:09 | 33.89906 | -115.65017 | 38869 ft | 484 kts | 46° |
| 2026-05-06 04:10 | 33.94406 | -115.59007 | 38870 ft | 483 kts | 46° |
| 2026-05-06 04:10 | 33.98867 | -115.53041 | 38871 ft | 483 kts | 46° |
| 2026-05-06 04:11 | 34.03366 | -115.47015 | 38863 ft | 483 kts | 46° |
| 2026-05-06 04:11 | 34.07863 | -115.40980 | 38865 ft | 484 kts | 46° |
| 2026-05-06 04:12 | 34.12362 | -115.34933 | 38856 ft | 484 kts | 46° |
| 2026-05-06 04:12 | 34.16857 | -115.28881 | 38860 ft | 484 kts | 46° |
| 2026-05-06 04:13 | 34.21317 | -115.22865 | 38854 ft | 484 kts | 46° |
| 2026-05-06 04:13 | 34.25810 | -115.16794 | 38859 ft | 485 kts | 46° |
| 2026-05-06 04:14 | 34.30303 | -115.10714 | 38857 ft | 485 kts | 47° |
| 2026-05-06 04:14 | 34.34800 | -115.04617 | 38863 ft | 486 kts | 47° |
| 2026-05-06 04:15 | 34.39298 | -114.98507 | 38857 ft | 486 kts | 47° |
| 2026-05-06 04:15 | 34.43800 | -114.92383 | 38858 ft | 487 kts | 47° |
| 2026-05-06 04:16 | 34.48269 | -114.86290 | 38857 ft | 487 kts | 47° |
| 2026-05-06 04:16 | 34.52767 | -114.80150 | 38880 ft | 487 kts | 47° |
| 2026-05-06 04:17 | 34.57266 | -114.73996 | 38888 ft | 487 kts | 47° |
| 2026-05-06 04:17 | 34.61760 | -114.67838 | 38908 ft | 488 kts | 47° |
| 2026-05-06 04:18 | 34.66225 | -114.61709 | 38915 ft | 487 kts | 47° |
| 2026-05-06 04:18 | 34.70719 | -114.55540 | 38925 ft | 488 kts | 46° |
| 2026-05-06 04:19 | 34.75255 | -114.49404 | 38914 ft | 488 kts | 45° |
| 2026-05-06 04:19 | 34.80182 | -114.43766 | 38903 ft | 487 kts | 39° |
| 2026-05-06 04:20 | 34.85259 | -114.38303 | 38879 ft | 487 kts | 38° |
| 2026-05-06 04:20 | 34.90366 | -114.32861 | 38867 ft | 488 kts | 38° |
| 2026-05-06 04:21 | 34.95473 | -114.27402 | 38846 ft | 488 kts | 38° |
| 2026-05-06 04:21 | 35.00536 | -114.21967 | 38850 ft | 488 kts | 38° |
| 2026-05-06 04:22 | 35.05134 | -114.15863 | 38889 ft | 490 kts | 50° |
| 2026-05-06 04:23 | 35.11382 | -114.05973 | 38953 ft | 491 kts | 51° |
| 2026-05-06 04:23 | 35.15538 | -113.99344 | 38983 ft | 491 kts | 51° |
| 2026-05-06 04:24 | 35.19689 | -113.92714 | 38997 ft | 492 kts | 51° |
| 2026-05-06 04:24 | 35.23839 | -113.86074 | 39000 ft | 491 kts | 51° |
| 2026-05-06 04:25 | 35.27989 | -113.79421 | 38980 ft | 491 kts | 51° |
| 2026-05-06 04:25 | 35.32103 | -113.72813 | 38951 ft | 491 kts | 51° |
| 2026-05-06 04:26 | 35.36239 | -113.66157 | 38924 ft | 491 kts | 51° |
| 2026-05-06 04:26 | 35.40374 | -113.59490 | 38898 ft | 491 kts | 51° |
| 2026-05-06 04:27 | 35.44513 | -113.52805 | 38884 ft | 492 kts | 51° |
| 2026-05-06 04:27 | 35.48622 | -113.46154 | 38886 ft | 493 kts | 51° |
| 2026-05-06 04:28 | 35.52759 | -113.39446 | 38891 ft | 493 kts | 51° |
| 2026-05-06 04:28 | 35.56895 | -113.32726 | 38891 ft | 494 kts | 51° |
| 2026-05-06 04:29 | 35.61031 | -113.25994 | 38896 ft | 494 kts | 51° |
| 2026-05-06 04:29 | 35.65166 | -113.19250 | 38899 ft | 494 kts | 51° |
| 2026-05-06 04:30 | 35.69303 | -113.12488 | 38905 ft | 495 kts | 51° |
| 2026-05-06 04:30 | 35.73412 | -113.05760 | 38910 ft | 495 kts | 51° |
| 2026-05-06 04:31 | 35.77550 | -112.98972 | 38913 ft | 496 kts | 51° |
| 2026-05-06 04:31 | 35.81687 | -112.92171 | 38916 ft | 496 kts | 51° |
| 2026-05-06 04:32 | 35.85823 | -112.85360 | 38917 ft | 497 kts | 51° |
| 2026-05-06 04:32 | 35.89937 | -112.78571 | 38917 ft | 498 kts | 51° |
| 2026-05-06 04:33 | 35.94084 | -112.71713 | 38915 ft | 499 kts | 51° |
| 2026-05-06 04:33 | 35.98231 | -112.64842 | 38919 ft | 500 kts | 51° |
| 2026-05-06 04:34 | 36.02380 | -112.57955 | 38922 ft | 501 kts | 51° |
| 2026-05-06 04:34 | 36.06536 | -112.51042 | 38948 ft | 501 kts | 51° |
| 2026-05-06 04:35 | 36.10697 | -112.44107 | 38970 ft | 502 kts | 51° |
| 2026-05-06 04:35 | 36.14852 | -112.37166 | 38979 ft | 501 kts | 52° |
| 2026-05-06 04:36 | 36.18954 | -112.30299 | 38979 ft | 499 kts | 52° |
| 2026-05-06 04:36 | 36.23077 | -112.23384 | 38965 ft | 500 kts | 52° |
| 2026-05-06 04:37 | 36.27211 | -112.16437 | 38941 ft | 501 kts | 52° |
| 2026-05-06 04:37 | 36.29263 | -112.12987 | 39320 ft | 478 kts | 52° |
| 2026-05-06 04:37 | 36.30554 | -112.10836 | 40111 ft | 465 kts | 52° |
| 2026-05-06 04:37 | 36.33139 | -112.06596 | 39523 ft | 460 kts | 51° |
| 2026-05-06 04:38 | 36.34436 | -112.04506 | 38985 ft | 464 kts | 51° |
| 2026-05-06 04:38 | 36.37042 | -112.00340 | 38497 ft | 455 kts | 53° |
| 2026-05-06 04:38 | 36.38834 | -111.97198 | 38627 ft | 436 kts | 54° |
| 2026-05-06 04:38 | 36.40526 | -111.94187 | 38877 ft | 415 kts | 53° |
| 2026-05-06 04:39 | 36.42154 | -111.91323 | 38993 ft | 397 kts | 53° |
| 2026-05-06 04:39 | 36.43728 | -111.88587 | 38999 ft | 382 kts | 53° |
| 2026-05-06 04:39 | 36.44742 | -111.86837 | 38996 ft | 372 kts | 53° |
| 2026-05-06 04:39 | 36.46225 | -111.84287 | 39000 ft | 356 kts | 53° |
| 2026-05-06 04:40 | 36.47648 | -111.81850 | 38993 ft | 341 kts | 53° |
| 2026-05-06 04:40 | 36.49004 | -111.79529 | 38988 ft | 323 kts | 52° |
| 2026-05-06 04:40 | 36.50350 | -111.77302 | 38956 ft | 326 kts | 52° |
| 2026-05-06 04:40 | 36.51725 | -111.74967 | 38496 ft | 342 kts | 53° |
| 2026-05-06 04:41 | 36.53131 | -111.72545 | 38395 ft | 347 kts | 53° |
| 2026-05-06 04:41 | 36.54534 | -111.70132 | 38603 ft | 341 kts | 53° |
| 2026-05-06 04:41 | 36.55916 | -111.67760 | 38841 ft | 335 kts | 53° |
| 2026-05-06 04:41 | 36.57274 | -111.65432 | 38984 ft | 332 kts | 53° |
| 2026-05-06 04:42 | 36.58634 | -111.63103 | 39002 ft | 332 kts | 53° |
| 2026-05-06 04:42 | 36.61339 | -111.58474 | 39001 ft | 334 kts | 53° |
| 2026-05-06 04:43 | 36.64074 | -111.53791 | 38998 ft | 335 kts | 53° |
| 2026-05-06 04:43 | 36.66813 | -111.49095 | 39007 ft | 337 kts | 53° |
| 2026-05-06 04:44 | 36.69598 | -111.44349 | 38804 ft | 347 kts | 51° |
| 2026-05-06 04:44 | 36.71113 | -111.41887 | 38211 ft | 369 kts | 52° |
| 2026-05-06 04:44 | 36.72720 | -111.39271 | 37567 ft | 393 kts | 52° |
| 2026-05-06 04:44 | 36.74414 | -111.36481 | 37262 ft | 404 kts | 53° |
| 2026-05-06 04:45 | 36.76040 | -111.33761 | 37731 ft | 399 kts | 53° |
| 2026-05-06 04:45 | 36.77734 | -111.30881 | 36892 ft | 427 kts | 54° |
| 2026-05-06 04:45 | 36.79507 | -111.27809 | 36633 ft | 440 kts | 54° |
| 2026-05-06 04:45 | 36.81271 | -111.24694 | 36965 ft | 437 kts | 55° |
| 2026-05-06 04:46 | 36.83000 | -111.21578 | 37195 ft | 438 kts | 56° |
| 2026-05-06 04:46 | 36.84720 | -111.18440 | 37435 ft | 438 kts | 55° |
| 2026-05-06 04:46 | 36.86453 | -111.15323 | 37686 ft | 437 kts | 55° |
| 2026-05-06 04:46 | 36.88202 | -111.12221 | 37931 ft | 436 kts | 54° |
| 2026-05-06 04:47 | 36.89955 | -111.09141 | 38181 ft | 435 kts | 54° |
| 2026-05-06 04:47 | 36.91713 | -111.06065 | 38437 ft | 434 kts | 54° |
| 2026-05-06 04:47 | 36.93467 | -111.03004 | 38676 ft | 432 kts | 54° |
| 2026-05-06 04:47 | 36.95192 | -110.99997 | 38912 ft | 431 kts | 54° |
| 2026-05-06 04:48 | 36.96946 | -110.96939 | 38996 ft | 434 kts | 54° |
| 2026-05-06 04:48 | 37.00497 | -110.90743 | 39000 ft | 443 kts | 54° |
| 2026-05-06 04:49 | 37.04115 | -110.84423 | 39001 ft | 450 kts | 54° |
| 2026-05-06 04:49 | 37.07762 | -110.78039 | 39003 ft | 449 kts | 54° |
| 2026-05-06 04:50 | 37.11347 | -110.71750 | 38999 ft | 445 kts | 54° |
| 2026-05-06 04:50 | 37.14932 | -110.65452 | 38995 ft | 443 kts | 54° |
| 2026-05-06 04:51 | 37.18510 | -110.59153 | 39005 ft | 444 kts | 54° |
| 2026-05-06 04:51 | 37.22088 | -110.52843 | 38999 ft | 443 kts | 54° |
| 2026-05-06 04:52 | 37.25650 | -110.46549 | 38994 ft | 442 kts | 54° |
| 2026-05-06 04:52 | 37.29182 | -110.40296 | 39005 ft | 442 kts | 54° |
| 2026-05-06 04:53 | 37.32732 | -110.33999 | 38996 ft | 442 kts | 54° |
| 2026-05-06 04:53 | 37.36285 | -110.27687 | 38996 ft | 443 kts | 54° |
| 2026-05-06 04:54 | 37.39837 | -110.21362 | 39006 ft | 443 kts | 54° |
| 2026-05-06 04:54 | 37.43369 | -110.15062 | 39001 ft | 444 kts | 54° |
| 2026-05-06 04:55 | 37.46927 | -110.08704 | 39003 ft | 445 kts | 54° |
| 2026-05-06 04:55 | 37.50490 | -110.02323 | 39005 ft | 445 kts | 54° |
| 2026-05-06 04:56 | 37.54052 | -109.95935 | 39000 ft | 446 kts | 54° |
| 2026-05-06 04:56 | 37.57619 | -109.89522 | 39002 ft | 447 kts | 55° |
| 2026-05-06 04:57 | 37.61167 | -109.83132 | 39000 ft | 448 kts | 55° |
| 2026-05-06 04:57 | 37.64745 | -109.76677 | 39002 ft | 449 kts | 55° |
| 2026-05-06 04:58 | 37.68314 | -109.70224 | 39006 ft | 448 kts | 55° |
| 2026-05-06 04:58 | 37.71874 | -109.63776 | 39006 ft | 447 kts | 55° |
| 2026-05-06 04:59 | 37.75398 | -109.57380 | 39003 ft | 447 kts | 55° |
| 2026-05-06 04:59 | 37.78949 | -109.50923 | 38995 ft | 449 kts | 55° |
| 2026-05-06 05:00 | 37.82516 | -109.44424 | 38999 ft | 451 kts | 55° |
| 2026-05-06 05:00 | 37.86097 | -109.37887 | 39001 ft | 451 kts | 55° |
| 2026-05-06 05:01 | 37.89632 | -109.31420 | 39003 ft | 449 kts | 55° |
| 2026-05-06 05:01 | 37.93171 | -109.24933 | 39001 ft | 448 kts | 55° |
| 2026-05-06 05:02 | 37.96709 | -109.18436 | 39001 ft | 448 kts | 55° |
| 2026-05-06 05:02 | 38.00239 | -109.11940 | 39001 ft | 448 kts | 55° |
| 2026-05-06 05:03 | 38.03768 | -109.05434 | 39000 ft | 448 kts | 55° |
| 2026-05-06 05:03 | 38.07274 | -108.98957 | 39005 ft | 448 kts | 55° |
| 2026-05-06 05:04 | 38.10610 | -108.92313 | 38998 ft | 446 kts | 62° |
| 2026-05-06 05:04 | 38.13421 | -108.85285 | 39001 ft | 446 kts | 63° |
| 2026-05-06 05:05 | 38.16190 | -108.78216 | 38999 ft | 447 kts | 63° |
| 2026-05-06 05:05 | 38.18942 | -108.71189 | 38996 ft | 448 kts | 63° |
| 2026-05-06 05:06 | 38.21715 | -108.64101 | 38997 ft | 447 kts | 63° |
| 2026-05-06 05:06 | 38.24475 | -108.57030 | 39002 ft | 446 kts | 63° |
| 2026-05-06 05:07 | 38.27229 | -108.49960 | 38998 ft | 446 kts | 63° |
| 2026-05-06 05:07 | 38.29962 | -108.42928 | 38999 ft | 447 kts | 63° |
| 2026-05-06 05:08 | 38.32713 | -108.35830 | 39004 ft | 448 kts | 64° |
| 2026-05-06 05:08 | 38.35475 | -108.28690 | 39004 ft | 451 kts | 64° |
| 2026-05-06 05:09 | 38.38247 | -108.21507 | 39002 ft | 452 kts | 64° |
| 2026-05-06 05:09 | 38.40998 | -108.14365 | 38996 ft | 451 kts | 64° |
| 2026-05-06 05:10 | 38.43754 | -108.07189 | 38999 ft | 449 kts | 64° |
| 2026-05-06 05:10 | 38.46486 | -108.00049 | 38996 ft | 447 kts | 64° |
| 2026-05-06 05:11 | 38.49191 | -107.92903 | 38997 ft | 446 kts | 64° |
| 2026-05-06 05:11 | 38.51867 | -107.85816 | 38997 ft | 446 kts | 64° |
| 2026-05-06 05:12 | 38.54552 | -107.78686 | 38998 ft | 446 kts | 64° |
| 2026-05-06 05:12 | 38.57244 | -107.71525 | 39001 ft | 448 kts | 64° |
| 2026-05-06 05:13 | 38.59944 | -107.64325 | 38993 ft | 450 kts | 64° |
| 2026-05-06 05:13 | 38.62644 | -107.57107 | 38997 ft | 450 kts | 64° |
| 2026-05-06 05:14 | 38.65317 | -107.49948 | 38993 ft | 449 kts | 64° |
| 2026-05-06 05:14 | 38.68044 | -107.42741 | 38999 ft | 452 kts | 64° |
| 2026-05-06 05:15 | 38.70793 | -107.35481 | 38997 ft | 454 kts | 64° |
| 2026-05-06 05:15 | 38.73545 | -107.28196 | 38999 ft | 455 kts | 64° |
| 2026-05-06 05:16 | 38.76291 | -107.20905 | 38997 ft | 454 kts | 64° |
| 2026-05-06 05:16 | 38.79015 | -107.13656 | 39006 ft | 455 kts | 64° |
| 2026-05-06 05:16 | 38.80387 | -107.09999 | 38853 ft | 454 kts | 64° |
| 2026-05-06 05:17 | 38.81749 | -107.06363 | 38609 ft | 453 kts | 64° |
| 2026-05-06 05:17 | 38.83114 | -107.02717 | 38356 ft | 453 kts | 64° |
| 2026-05-06 05:17 | 38.84477 | -106.99068 | 38109 ft | 455 kts | 64° |
| 2026-05-06 05:17 | 38.85843 | -106.95409 | 37860 ft | 454 kts | 64° |
| 2026-05-06 05:18 | 38.87202 | -106.91764 | 37598 ft | 452 kts | 64° |
| 2026-05-06 05:18 | 38.88540 | -106.88172 | 37374 ft | 452 kts | 64° |
| 2026-05-06 05:18 | 38.89908 | -106.84492 | 37187 ft | 466 kts | 64° |
| 2026-05-06 05:18 | 38.91326 | -106.80677 | 36936 ft | 478 kts | 64° |
| 2026-05-06 05:19 | 38.92760 | -106.76813 | 36681 ft | 479 kts | 64° |
| 2026-05-06 05:19 | 38.94185 | -106.72966 | 36420 ft | 476 kts | 64° |
| 2026-05-06 05:19 | 38.95602 | -106.69136 | 36167 ft | 474 kts | 64° |
| 2026-05-06 05:19 | 38.97013 | -106.65317 | 35918 ft | 473 kts | 64° |
| 2026-05-06 05:20 | 38.98419 | -106.61506 | 35636 ft | 470 kts | 64° |
| 2026-05-06 05:20 | 38.99818 | -106.57710 | 35055 ft | 470 kts | 64° |
| 2026-05-06 05:20 | 39.01196 | -106.53956 | 34359 ft | 473 kts | 64° |
| 2026-05-06 05:20 | 39.02599 | -106.50123 | 33602 ft | 476 kts | 64° |
| 2026-05-06 05:21 | 39.04010 | -106.46262 | 32800 ft | 477 kts | 63° |
| 2026-05-06 05:21 | 39.05417 | -106.42409 | 32045 ft | 477 kts | 63° |
| 2026-05-06 05:21 | 39.06820 | -106.38560 | 31550 ft | 471 kts | 62° |
| 2026-05-06 05:21 | 39.08203 | -106.34763 | 31030 ft | 466 kts | 62° |
| 2026-05-06 05:22 | 39.09569 | -106.31006 | 30495 ft | 461 kts | 62° |
| 2026-05-06 05:22 | 39.10920 | -106.27287 | 29914 ft | 457 kts | 61° |
| 2026-05-06 05:22 | 39.12244 | -106.23641 | 29305 ft | 453 kts | 61° |
| 2026-05-06 05:22 | 39.13568 | -106.19991 | 28734 ft | 447 kts | 61° |
| 2026-05-06 05:23 | 39.14874 | -106.16384 | 28160 ft | 442 kts | 62° |
| 2026-05-06 05:23 | 39.16162 | -106.12814 | 27599 ft | 437 kts | 62° |
| 2026-05-06 05:23 | 39.18697 | -106.05768 | 26464 ft | 430 kts | 62° |
| 2026-05-06 05:24 | 39.19947 | -106.02287 | 25903 ft | 427 kts | 62° |
| 2026-05-06 05:24 | 39.21191 | -105.98819 | 25341 ft | 424 kts | 63° |
| 2026-05-06 05:24 | 39.22402 | -105.95438 | 25003 ft | 416 kts | 63° |
| 2026-05-06 05:24 | 39.23595 | -105.92099 | 24867 ft | 403 kts | 62° |
| 2026-05-06 05:25 | 39.24758 | -105.88864 | 24678 ft | 392 kts | 62° |
| 2026-05-06 05:25 | 39.25891 | -105.85719 | 24485 ft | 382 kts | 62° |
| 2026-05-06 05:25 | 39.27006 | -105.82624 | 24105 ft | 380 kts | 62° |
| 2026-05-06 05:25 | 39.28121 | -105.79532 | 23666 ft | 380 kts | 63° |
| 2026-05-06 05:26 | 39.29230 | -105.76449 | 23214 ft | 378 kts | 63° |
| 2026-05-06 05:26 | 39.30330 | -105.73385 | 22919 ft | 372 kts | 63° |
| 2026-05-06 05:26 | 39.31392 | -105.70422 | 22595 ft | 368 kts | 63° |
| 2026-05-06 05:26 | 39.32473 | -105.67417 | 22055 ft | 369 kts | 62° |
| 2026-05-06 05:27 | 39.33564 | -105.64419 | 21562 ft | 369 kts | 62° |
| 2026-05-06 05:27 | 39.34664 | -105.61410 | 21015 ft | 371 kts | 62° |
| 2026-05-06 05:27 | 39.35761 | -105.58405 | 20655 ft | 367 kts | 62° |
| 2026-05-06 05:27 | 39.36835 | -105.55456 | 20349 ft | 360 kts | 62° |
| 2026-05-06 05:28 | 39.37901 | -105.52529 | 19899 ft | 359 kts | 62° |
| 2026-05-06 05:28 | 39.38961 | -105.49619 | 19523 ft | 356 kts | 62° |
| 2026-05-06 05:28 | 39.40006 | -105.46742 | 19175 ft | 351 kts | 62° |
| 2026-05-06 05:28 | 39.41017 | -105.43932 | 18785 ft | 350 kts | 64° |
| 2026-05-06 05:29 | 39.41639 | -105.40886 | 18402 ft | 351 kts | 83° |
| 2026-05-06 05:29 | 39.41760 | -105.37743 | 18002 ft | 349 kts | 88° |
| 2026-05-06 05:29 | 39.41772 | -105.34614 | 17639 ft | 346 kts | 89° |
| 2026-05-06 05:29 | 39.41772 | -105.31511 | 17288 ft | 344 kts | 89° |
| 2026-05-06 05:30 | 39.41776 | -105.28430 | 17051 ft | 341 kts | 89° |
| 2026-05-06 05:30 | 39.41785 | -105.25368 | 17024 ft | 341 kts | 89° |
| 2026-05-06 05:30 | 39.41796 | -105.22301 | 16770 ft | 340 kts | 89° |
| 2026-05-06 05:30 | 39.41808 | -105.19290 | 16301 ft | 339 kts | 89° |
| 2026-05-06 05:31 | 39.41821 | -105.16241 | 15878 ft | 338 kts | 89° |
| 2026-05-06 05:31 | 39.41833 | -105.13221 | 15472 ft | 335 kts | 89° |
| 2026-05-06 05:31 | 39.41845 | -105.10219 | 15070 ft | 333 kts | 89° |
| 2026-05-06 05:31 | 39.41857 | -105.07237 | 14677 ft | 330 kts | 90° |
| 2026-05-06 05:32 | 39.41867 | -105.04262 | 14163 ft | 332 kts | 90° |
| 2026-05-06 05:32 | 39.41877 | -105.01305 | 13884 ft | 325 kts | 90° |
| 2026-05-06 05:32 | 39.41885 | -104.98397 | 13450 ft | 323 kts | 90° |
| 2026-05-06 05:32 | 39.41897 | -104.95512 | 13051 ft | 319 kts | 88° |
| 2026-05-06 05:33 | 39.42042 | -104.92729 | 12783 ft | 311 kts | 84° |
| 2026-05-06 05:33 | 39.42273 | -104.89972 | 12438 ft | 306 kts | 83° |
| 2026-05-06 05:33 | 39.42516 | -104.87258 | 12134 ft | 301 kts | 83° |
| 2026-05-06 05:33 | 39.42758 | -104.84589 | 11894 ft | 298 kts | 83° |
| 2026-05-06 05:34 | 39.42997 | -104.81932 | 11440 ft | 297 kts | 83° |
| 2026-05-06 05:34 | 39.43239 | -104.79286 | 11098 ft | 293 kts | 81° |
| 2026-05-06 05:34 | 39.43838 | -104.76827 | 10989 ft | 286 kts | 59° |
| 2026-05-06 05:34 | 39.45185 | -104.74991 | 10710 ft | 282 kts | 34° |
| 2026-05-06 05:35 | 39.46837 | -104.73696 | 10511 ft | 281 kts | 29° |
| 2026-05-06 05:35 | 39.48557 | -104.72483 | 10344 ft | 281 kts | 28° |
| 2026-05-06 05:35 | 39.50266 | -104.71283 | 10184 ft | 279 kts | 29° |
| 2026-05-06 05:35 | 39.51968 | -104.70087 | 10032 ft | 278 kts | 27° |
| 2026-05-06 05:36 | 39.53778 | -104.69250 | 9988 ft | 277 kts | 11° |
| 2026-05-06 05:36 | 39.55699 | -104.69030 | 9989 ft | 278 kts | 2° |
| 2026-05-06 05:36 | 39.56108 | -104.69017 | 9990 ft | 278 kts | 2° |
| 2026-05-06 05:36 | 39.57069 | -104.69001 | 9995 ft | 278 kts | 1° |
| 2026-05-06 05:37 | 39.59005 | -104.68993 | 9978 ft | 278 kts | 1° |
| 2026-05-06 05:37 | 39.60917 | -104.68988 | 9733 ft | 276 kts | 1° |
| 2026-05-06 05:37 | 39.62795 | -104.68978 | 9573 ft | 264 kts | 1° |
| 2026-05-06 05:37 | 39.64593 | -104.68964 | 9433 ft | 253 kts | 1° |
| 2026-05-06 05:38 | 39.66319 | -104.68948 | 9270 ft | 244 kts | 1° |
| 2026-05-06 05:38 | 39.67991 | -104.68931 | 9054 ft | 237 kts | 1° |
| 2026-05-06 05:38 | 39.69627 | -104.68913 | 9000 ft | 235 kts | 1° |
| 2026-05-06 05:38 | 39.71274 | -104.68894 | 8981 ft | 237 kts | 1° |
| 2026-05-06 05:39 | 39.72910 | -104.68875 | 8861 ft | 233 kts | 1° |
| 2026-05-06 05:39 | 39.74507 | -104.68857 | 8479 ft | 233 kts | 1° |
| 2026-05-06 05:39 | 39.76124 | -104.68839 | 8078 ft | 232 kts | 2° |
| 2026-05-06 05:39 | 39.77731 | -104.68821 | 7673 ft | 231 kts | 2° |
| 2026-05-06 05:40 | 39.79333 | -104.68802 | 7261 ft | 230 kts | 2° |
| 2026-05-06 05:40 | 39.80929 | -104.68784 | 6856 ft | 228 kts | 2° |
| 2026-05-06 05:40 | 39.82511 | -104.68766 | 6463 ft | 227 kts | 2° |
| 2026-05-06 05:40 | 39.84082 | -104.68746 | 6020 ft | 223 kts | 1° |
| 2026-05-06 05:41 | 39.85603 | -104.68727 | 5710 ft | 212 kts | 0° |
| 2026-05-06 05:41 | 39.86058 | -104.68722 | 5650 ft | 204 kts | 1° |
| 2026-05-06 05:41 | 39.86258 | -104.68720 | 5637 ft | 200 kts | 1° |
| 2026-05-06 05:46 | 39.84998 | -104.68745 | 5637 ft | 0 kts | 1° |
| 2026-05-06 05:47 | 39.83560 | -104.68774 | 5801 ft | 0 kts | 1° |
| 2026-05-06 05:47 | 39.75856 | -104.68929 | 9001 ft | 0 kts | 1° |
| 2026-05-06 05:48 | 39.76100 | -104.68924 | 9022 ft | 0 kts | 1° |
| 2026-05-06 05:48 | 39.75245 | -104.68941 | 9019 ft | 0 kts | 25° |
| 2026-05-06 05:48 | 39.75245 | -104.68942 | 9017 ft | 0 kts | 2° |
| 2026-05-06 05:48 | 39.72692 | -104.69090 | 9022 ft | 0 kts | 193° |
| 2026-05-06 05:49 | 39.72694 | -104.69090 | 9017 ft | 0 kts | 2° |